Orbital elements of COSMOS 970 DEB
| Launched | 20 December 1977 |
| Flight ended | – |
| Launch site | Tyuratam Missile and Space Center, Kazakhstan (Also known as Baikonur Cosmodrome) |
| Owner | Commonwealth of Independent States (former USSR) |
| NORAD ID | 10575 |
| Date fetched |
Epoch osculation |
Inc. [°] |
Ecc. | RA asc node [hr] |
Arg Peri. [°] |
Mean anom [°] |
Mean motion [rev/day] |
Abs. mag |
| Date fetched |
Epoch osculation |
Inc. [°] |
Ecc. | RA asc node [hr] |
Arg Peri. [°] |
Mean anom [°] |
Mean motion [rev/day] |
Abs. mag |
| 2026 May 03 17:57 | 2026 Apr 30 13:26:08 | 65.8798 | 0.01118 | 3.2201 | 149.8892 | 35.3448 | 13.61355 | – |
| 2026 May 02 17:57 | 2026 Apr 30 13:26:08 | 65.8798 | 0.01118 | 3.2201 | 149.8892 | 35.3448 | 13.61355 | – |
| 2026 May 01 17:56 | 2026 Apr 30 13:26:08 | 65.8798 | 0.01118 | 3.2201 | 149.8892 | 35.3448 | 13.61355 | – |
| 2026 Apr 30 17:56 | 2026 Apr 30 13:26:08 | 65.8798 | 0.01118 | 3.2201 | 149.8892 | 35.3448 | 13.61355 | – |
| 2026 Apr 29 17:57 | 2026 Apr 24 07:24:42 | 65.8788 | 0.01122 | 4.2244 | 153.1226 | 35.3448 | 13.61355 | – |
| 2026 Apr 28 17:56 | 2026 Apr 24 07:24:42 | 65.8788 | 0.01122 | 4.2244 | 153.1226 | 35.3448 | 13.61355 | – |
| 2026 Apr 27 17:58 | 2026 Apr 24 07:24:42 | 65.8788 | 0.01122 | 4.2244 | 153.1226 | 35.3448 | 13.61355 | – |
| 2026 Apr 26 17:58 | 2026 Apr 24 07:24:42 | 65.8788 | 0.01122 | 4.2244 | 153.1226 | 35.3448 | 13.61355 | – |
| 2026 Apr 25 17:58 | 2026 Apr 24 07:24:42 | 65.8788 | 0.01122 | 4.2244 | 153.1226 | 35.3448 | 13.61355 | – |
| 2026 Apr 24 17:59 | 2026 Apr 24 07:24:42 | 65.8788 | 0.01122 | 4.2244 | 153.1226 | 35.3448 | 13.61355 | – |
| 2026 Apr 23 17:57 | 2026 Apr 19 07:29:43 | 65.8777 | 0.01126 | 5.0272 | 155.6920 | 35.3448 | 13.61355 | – |
| 2026 Apr 22 17:57 | 2026 Apr 19 07:29:43 | 65.8777 | 0.01126 | 5.0272 | 155.6920 | 35.3448 | 13.61355 | – |
| 2026 Apr 21 17:57 | 2026 Apr 19 07:29:43 | 65.8777 | 0.01126 | 5.0272 | 155.6920 | 35.3448 | 13.61355 | – |
| 2026 Apr 20 17:57 | 2026 Apr 19 07:29:43 | 65.8777 | 0.01126 | 5.0272 | 155.6920 | 35.3448 | 13.61355 | – |
| 2026 Apr 19 17:58 | 2026 Apr 19 07:29:43 | 65.8777 | 0.01126 | 5.0272 | 155.6920 | 35.3448 | 13.61355 | – |
| 2026 Apr 18 17:56 | 2026 Apr 13 06:15:29 | 65.8767 | 0.01131 | 5.9995 | 158.7834 | 35.3448 | 13.61355 | – |
| 2026 Apr 16 17:57 | 2026 Apr 13 06:15:29 | 65.8767 | 0.01131 | 5.9995 | 158.7834 | 35.3448 | 13.61355 | – |
| 2026 Apr 14 17:57 | 2026 Apr 13 06:15:29 | 65.8767 | 0.01131 | 5.9995 | 158.7834 | 35.3448 | 13.61355 | – |
| 2026 Apr 13 17:57 | 2026 Apr 13 06:15:29 | 65.8767 | 0.01131 | 5.9995 | 158.7834 | 35.3448 | 13.61355 | – |
| 2026 Apr 12 17:57 | 2026 Apr 08 06:23:30 | 65.8762 | 0.01135 | 6.8020 | 161.3128 | 35.3448 | 13.61355 | – |
| 2026 Apr 11 17:57 | 2026 Apr 08 06:23:30 | 65.8762 | 0.01135 | 6.8020 | 161.3128 | 35.3448 | 13.61355 | – |
| 2026 Apr 10 17:58 | 2026 Apr 08 06:23:30 | 65.8762 | 0.01135 | 6.8020 | 161.3128 | 35.3448 | 13.61355 | – |
| 2026 Apr 09 18:01 | 2026 Apr 08 06:23:30 | 65.8762 | 0.01135 | 6.8020 | 161.3128 | 35.3448 | 13.61355 | – |
| 2026 Apr 08 17:57 | 2026 Apr 08 06:23:30 | 65.8762 | 0.01135 | 6.8020 | 161.3128 | 35.3448 | 13.61355 | – |
| 2026 Apr 07 17:57 | 2026 Apr 02 07:35:06 | 65.8763 | 0.01140 | 7.7581 | 164.3042 | 35.3448 | 13.61355 | – |
| 2026 Apr 06 17:57 | 2026 Apr 02 07:35:06 | 65.8763 | 0.01140 | 7.7581 | 164.3042 | 35.3448 | 13.61355 | – |